Time;durP1;ratioP1;P1;durP2;ratioP2;P2;SDS_P1;SDS_P2;PMS_P1;PMS_P2;Temp;Humidity;BMP_temperature;BMP_pressure;BME280_temperature;BME280_humidity;BME280_pressure;Samples;Min_cycle;Max_cycle;Signal;HPM_P1;HPM_P2
2024/04/19 05:02:03;;;;;;;17.07;7.80;;;;;;;;;;5691946;21;20552;-71
2024/04/19 05:04:29;;;;;;;19.93;7.70;;;;;;;;;;5244116;27;20440;-71
2024/04/19 05:06:55;;;;;;;16.70;7.50;;;;;;;;;;5244068;27;20492;-72
2024/04/19 05:09:21;;;;;;;17.87;8.10;;;;;;;;;;5244447;27;20448;-71
2024/04/19 05:11:47;;;;;;;13.90;6.60;;;;;;;;;;5238711;27;20523;-70
2024/04/19 05:14:14;;;;;;;16.33;7.27;;;;;;;;;;5243892;27;20463;-74
2024/04/19 05:16:40;;;;;;;17.47;7.37;;;;;;;;;;5243470;27;20440;-73
2024/04/19 05:19:06;;;;;;;13.33;7.40;;;;;;;;;;5244123;27;20444;-73
2024/04/19 05:21:32;;;;;;;15.13;6.70;;;;;;;;;;5244425;27;20460;-73
2024/04/19 05:23:58;;;;;;;17.30;7.60;;;;;;;;;;5244037;27;21027;-70
2024/04/19 05:26:24;;;;;;;19.10;6.23;;;;;;;;;;5244173;27;21010;-71
2024/04/19 05:28:50;;;;;;;11.83;6.30;;;;;;;;;;5240389;27;20586;-70
2024/04/19 05:31:16;;;;;;;12.47;6.63;;;;;;;;;;5243637;27;20455;-71
2024/04/19 05:33:44;;;;;;;15.33;7.27;;;;;;;;;;5243712;27;20432;-71
2024/04/19 05:36:10;;;;;;;19.63;9.33;;;;;;;;;;5243345;27;20610;-71
2024/04/19 05:38:36;;;;;;;18.73;7.80;;;;;;;;;;5242779;27;20451;-71
2024/04/19 05:41:02;;;;;;;12.07;6.93;;;;;;;;;;5243326;27;20514;-71
2024/04/19 05:43:28;;;;;;;20.13;8.40;;;;;;;;;;5243111;27;20440;-71
2024/04/19 05:45:54;;;;;;;11.90;6.70;;;;;;;;;;5239637;27;21055;-72
2024/04/19 05:48:20;;;;;;;10.20;6.57;;;;;;;;;;5243530;27;20451;-72
2024/04/19 05:50:46;;;;;;;15.37;7.03;;;;;;;;;;5243508;27;20463;-71
2024/04/19 05:53:13;;;;;;;11.77;6.17;;;;;;;;;;5244497;27;21079;-71
2024/04/19 05:55:39;;;;;;;14.50;6.50;;;;;;;;;;5241872;27;20600;-72
2024/04/19 05:58:05;;;;;;;14.23;6.57;;;;;;;;;;5243264;27;20501;-71
2024/04/19 06:00:30;;;;;;;12.20;6.63;;;;;;;;;;5243454;27;20460;-71
2024/04/19 06:02:56;;;;;;;11.17;6.00;;;;;;;;;;5240249;27;20533;-71
2024/04/19 06:05:22;;;;;;;15.97;6.00;;;;;;;;;;5243036;27;20559;-71
2024/04/19 06:07:48;;;;;;;11.20;6.30;;;;;;;;;;5244299;27;20439;-71
2024/04/19 06:10:14;;;;;;;9.43;5.10;;;;;;;;;;5244383;27;20447;-71
2024/04/19 06:12:40;;;;;;;15.30;5.97;;;;;;;;;;5243162;27;20439;-71
2024/04/19 06:15:06;;;;;;;10.70;5.70;;;;;;;;;;5242269;27;20439;-71
2024/04/19 06:17:32;;;;;;;8.47;5.33;;;;;;;;;;5244016;27;20799;-71
2024/04/19 06:19:59;;;;;;;13.63;5.60;;;;;;;;;;5249364;27;20539;-72
2024/04/19 06:22:25;;;;;;;8.13;5.10;;;;;;;;;;5266285;27;20605;-73
2024/04/19 06:24:51;;;;;;;10.23;5.50;;;;;;;;;;5265827;27;20503;-73
2024/04/19 06:27:17;;;;;;;13.87;5.60;;;;;;;;;;5266342;27;20507;-75
2024/04/19 06:29:43;;;;;;;8.70;4.83;;;;;;;;;;5266187;27;20448;-75
2024/04/19 06:32:09;;;;;;;8.80;4.97;;;;;;;;;;5265942;27;20468;-76
2024/04/19 06:34:35;;;;;;;9.10;4.27;;;;;;;;;;5250156;27;20820;-69
2024/04/19 06:37:03;;;;;;;5.80;4.27;;;;;;;;;;5243713;27;20502;-71
2024/04/19 06:39:29;;;;;;;7.60;5.10;;;;;;;;;;5243095;27;21063;-72
2024/04/19 06:41:57;;;;;;;10.57;4.07;;;;;;;;;;5246756;27;20853;-70
2024/04/19 06:44:23;;;;;;;8.10;4.27;;;;;;;;;;5242988;27;20440;-69
2024/04/19 06:46:49;;;;;;;7.77;4.10;;;;;;;;;;5242221;27;20444;-70
2024/04/19 06:49:15;;;;;;;8.70;4.23;;;;;;;;;;5242521;27;20563;-70
2024/04/19 06:51:41;;;;;;;7.73;5.00;;;;;;;;;;5242556;27;20507;-70
2024/04/19 06:54:07;;;;;;;8.03;5.00;;;;;;;;;;5239931;27;21142;-70
2024/04/19 06:56:33;;;;;;;10.57;4.20;;;;;;;;;;5241517;27;20994;-70
2024/04/19 06:58:59;;;;;;;7.30;4.10;;;;;;;;;;5242626;27;20966;-69
2024/04/19 07:01:25;;;;;;;12.60;4.80;;;;;;;;;;5242326;27;21063;-70
2024/04/19 07:03:52;;;;;;;8.53;4.40;;;;;;;;;;5242392;27;20448;-70
2024/04/19 07:06:18;;;;;;;6.50;4.80;;;;;;;;;;5242734;27;20497;-69
2024/04/19 07:08:44;;;;;;;7.90;4.97;;;;;;;;;;5242016;27;20444;-69
2024/04/19 07:11:10;;;;;;;6.30;4.40;;;;;;;;;;5213543;27;20477;-70
2024/04/19 07:13:36;;;;;;;4.67;3.77;;;;;;;;;;5209262;27;20490;-69
2024/04/19 07:16:02;;;;;;;6.37;4.20;;;;;;;;;;5208865;27;20449;-70
2024/04/19 07:18:28;;;;;;;6.43;4.50;;;;;;;;;;5209094;27;20445;-70
2024/04/19 07:20:54;;;;;;;10.07;4.67;;;;;;;;;;5209018;27;20513;-70
2024/04/19 07:23:21;;;;;;;10.10;4.63;;;;;;;;;;5208805;27;20693;-70
2024/04/19 07:25:48;;;;;;;6.47;4.33;;;;;;;;;;5208781;27;20497;-69
2024/04/19 07:28:14;;;;;;;7.03;3.83;;;;;;;;;;5231176;27;20523;-70
2024/04/19 07:30:40;;;;;;;11.47;4.63;;;;;;;;;;5240859;27;20516;-68
2024/04/19 07:33:06;;;;;;;8.17;4.80;;;;;;;;;;5242687;27;20795;-71
2024/04/19 07:35:32;;;;;;;9.40;5.30;;;;;;;;;;5240386;27;20568;-70
2024/04/19 07:37:59;;;;;;;8.03;5.23;;;;;;;;;;5241757;27;20853;-70
2024/04/19 07:40:25;;;;;;;8.97;5.00;;;;;;;;;;5241897;27;20447;-70
2024/04/19 07:42:51;;;;;;;8.63;4.23;;;;;;;;;;5239551;27;20516;-71
2024/04/19 07:45:22;;;;;;;15.40;5.43;;;;;;;;;;5240221;27;20496;-72
2024/04/19 07:47:48;;;;;;;9.97;5.07;;;;;;;;;;5241682;27;20439;-69
2024/04/19 07:50:14;;;;;;;8.27;4.93;;;;;;;;;;5242663;27;20451;-69
2024/04/19 07:52:40;;;;;;;12.40;5.13;;;;;;;;;;5243619;27;20448;-69
2024/04/19 07:55:07;;;;;;;7.47;4.80;;;;;;;;;;5244920;27;20439;-71
2024/04/19 07:57:33;;;;;;;10.53;5.37;;;;;;;;;;5244470;27;20855;-72
2024/04/19 08:00:01;;;;;;;8.30;5.10;;;;;;;;;;5232646;27;20561;-70
2024/04/19 08:02:27;;;;;;;11.27;6.37;;;;;;;;;;5211287;27;20485;-70
2024/04/19 08:04:53;;;;;;;8.67;5.33;;;;;;;;;;5211760;27;20512;-72
2024/04/19 08:07:23;;;;;;;9.60;5.67;;;;;;;;;;5211645;27;20505;-71
2024/04/19 08:09:51;;;;;;;18.40;7.70;;;;;;;;;;5211848;27;20457;-70
2024/04/19 08:12:17;;;;;;;19.53;9.93;;;;;;;;;;5211773;27;21140;-70
2024/04/19 08:14:43;;;;;;;11.33;5.90;;;;;;;;;;5211765;27;20449;-71
2024/04/19 08:17:09;;;;;;;14.00;5.47;;;;;;;;;;5213891;27;20997;-71
2024/04/19 08:19:35;;;;;;;7.07;4.70;;;;;;;;;;5244941;27;21027;-71
2024/04/19 08:22:01;;;;;;;12.07;5.70;;;;;;;;;;5244737;27;20467;-71
2024/04/19 08:24:28;;;;;;;11.00;7.00;;;;;;;;;;5242863;27;20447;-71
2024/04/19 08:26:54;;;;;;;11.30;7.00;;;;;;;;;;5244306;27;20767;-70
2024/04/19 08:29:20;;;;;;;8.67;5.97;;;;;;;;;;5244690;27;20492;-70
2024/04/19 08:31:46;;;;;;;10.03;6.20;;;;;;;;;;5244509;27;20455;-70
2024/04/19 08:34:12;;;;;;;7.80;5.67;;;;;;;;;;5242116;27;21063;-70
2024/04/19 08:36:38;;;;;;;12.67;7.43;;;;;;;;;;5243940;27;20517;-71
2024/04/19 08:39:04;;;;;;;9.97;5.90;;;;;;;;;;5244533;27;20501;-71
2024/04/19 08:41:30;;;;;;;8.40;5.07;;;;;;;;;;5244958;27;20869;-71
2024/04/19 08:44:00;;;;;;;9.50;5.17;;;;;;;;;;5244466;27;20521;-71
2024/04/19 08:46:32;;;;;;;8.63;4.90;;;;;;;;;;5244208;27;20978;-71
2024/04/19 08:48:59;;;;;;;6.53;3.70;;;;;;;;;;5244630;27;20508;-70
2024/04/19 08:51:25;;;;;;;7.17;4.53;;;;;;;;;;5241830;27;21006;-70
2024/04/19 08:53:52;;;;;;;7.30;4.60;;;;;;;;;;5244506;27;20981;-70
2024/04/19 08:56:18;;;;;;;6.37;3.90;;;;;;;;;;5244210;27;20443;-70
2024/04/19 08:58:44;;;;;;;4.67;4.10;;;;;;;;;;5243832;27;20444;-69
2024/04/19 09:01:10;;;;;;;5.70;3.47;;;;;;;;;;5242219;27;20531;-71
2024/04/19 09:03:36;;;;;;;5.00;3.40;;;;;;;;;;5244379;27;20439;-70
2024/04/19 09:06:04;;;;;;;7.60;3.93;;;;;;;;;;5241619;27;20516;-70
2024/04/19 09:08:30;;;;;;;4.60;3.87;;;;;;;;;;5243900;27;20493;-70
2024/04/19 09:10:56;;;;;;;9.80;3.70;;;;;;;;;;5244173;27;20520;-70
2024/04/19 09:13:22;;;;;;;14.97;3.63;;;;;;;;;;5244077;27;20451;-70
2024/04/19 09:15:48;;;;;;;7.47;4.00;;;;;;;;;;5244244;27;20826;-71
2024/04/19 09:18:15;;;;;;;4.50;3.40;;;;;;;;;;5244208;27;20513;-71
2024/04/19 09:20:47;;;;;;;7.00;4.37;;;;;;;;;;5244900;27;20463;-70
2024/04/19 09:23:13;;;;;;;8.23;4.20;;;;;;;;;;5242194;27;20568;-71
2024/04/19 09:25:39;;;;;;;5.93;4.17;;;;;;;;;;5244597;27;20440;-70
2024/04/19 09:28:09;;;;;;;7.60;4.37;;;;;;;;;;5243930;27;20789;-70
2024/04/19 09:30:35;;;;;;;7.03;4.17;;;;;;;;;;5244147;27;20583;-70
2024/04/19 09:33:01;;;;;;;7.27;4.00;;;;;;;;;;5244600;27;20455;-70
2024/04/19 09:35:33;;;;;;;6.17;4.30;;;;;;;;;;5243842;27;20963;-72
2024/04/19 09:37:59;;;;;;;8.80;4.60;;;;;;;;;;5243637;27;20503;-71
2024/04/19 09:40:26;;;;;;;8.37;4.70;;;;;;;;;;5241321;27;20584;-71
2024/04/19 09:42:54;;;;;;;8.87;4.53;;;;;;;;;;5244460;27;20460;-70
2024/04/19 09:45:21;;;;;;;11.63;4.87;;;;;;;;;;5244103;27;20864;-70
2024/04/19 09:47:52;;;;;;;8.87;4.23;;;;;;;;;;5243657;27;20556;-70
2024/04/19 09:50:19;;;;;;;5.93;4.23;;;;;;;;;;5243737;27;20500;-70
2024/04/19 09:52:49;;;;;;;17.83;7.80;;;;;;;;;;5241821;27;20459;-71
2024/04/19 09:55:21;;;;;;;29.80;11.73;;;;;;;;;;5243558;27;20495;-71
2024/04/19 09:57:48;;;;;;;9.07;5.30;;;;;;;;;;5240961;27;20584;-70
2024/04/19 10:00:17;;;;;;;6.80;4.00;;;;;;;;;;5243355;27;20451;-70
2024/04/19 10:02:44;;;;;;;7.30;4.80;;;;;;;;;;5243386;27;20522;-69
2024/04/19 10:05:11;;;;;;;6.80;4.00;;;;;;;;;;5243671;27;20790;-70
2024/04/19 10:07:37;;;;;;;7.50;5.20;;;;;;;;;;5241421;27;20914;-70
2024/04/19 10:10:05;;;;;;;11.33;5.80;;;;;;;;;;5243465;27;20492;-72
2024/04/19 10:12:32;;;;;;;8.23;5.80;;;;;;;;;;5237533;27;20537;-70
2024/04/19 10:14:58;;;;;;;8.87;5.20;;;;;;;;;;5240992;27;20563;-71
2024/04/19 10:17:24;;;;;;;9.83;5.77;;;;;;;;;;5242320;27;20440;-70
2024/04/19 10:19:51;;;;;;;8.40;4.77;;;;;;;;;;5238586;27;20819;-70
2024/04/19 10:22:22;;;;;;;7.50;5.20;;;;;;;;;;5241172;27;20594;-71
2024/04/19 10:24:52;;;;;;;7.27;5.10;;;;;;;;;;5243472;27;21039;-71
2024/04/19 10:27:18;;;;;;;9.27;5.00;;;;;;;;;;5243091;27;20451;-71
2024/04/19 10:29:49;;;;;;;11.57;5.33;;;;;;;;;;5243892;27;20947;-71
2024/04/19 10:32:18;;;;;;;6.73;4.57;;;;;;;;;;5243371;27;20460;-72
2024/04/19 10:34:44;;;;;;;10.07;5.40;;;;;;;;;;5241391;27;20452;-72
2024/04/19 10:37:11;;;;;;;8.60;5.17;;;;;;;;;;5242348;27;20579;-71
2024/04/19 10:39:37;;;;;;;12.20;6.27;;;;;;;;;;5243137;27;20503;-71
2024/04/19 10:42:03;;;;;;;10.27;5.73;;;;;;;;;;5242763;27;20468;-71
2024/04/19 10:44:30;;;;;;;11.73;6.37;;;;;;;;;;5242546;27;20525;-71
2024/04/19 10:46:57;;;;;;;6.90;4.73;;;;;;;;;;5242284;27;20531;-71
2024/04/19 10:49:24;;;;;;;10.10;6.00;;;;;;;;;;5243287;27;20452;-70
2024/04/19 10:51:51;;;;;;;7.73;4.90;;;;;;;;;;5240346;27;21161;-71
2024/04/19 10:54:17;;;;;;;8.90;5.10;;;;;;;;;;5243687;27;20444;-71
2024/04/19 10:56:43;;;;;;;7.47;4.73;;;;;;;;;;5240951;27;20499;-71
2024/04/19 10:59:09;;;;;;;7.40;4.77;;;;;;;;;;5242910;27;20444;-71
2024/04/19 11:01:38;;;;;;;5.13;4.00;;;;;;;;;;5241299;27;20539;-71
2024/04/19 11:04:04;;;;;;;8.90;4.77;;;;;;;;;;5243067;27;20501;-72
2024/04/19 11:06:30;;;;;;;6.87;4.60;;;;;;;;;;5242826;27;20974;-72
2024/04/19 11:08:56;;;;;;;6.77;4.90;;;;;;;;;;5240026;27;20516;-72
2024/04/19 11:11:22;;;;;;;7.47;5.37;;;;;;;;;;5242781;27;20519;-72
2024/04/19 11:13:48;;;;;;;10.23;5.77;;;;;;;;;;5242799;27;20448;-70
2024/04/19 11:16:14;;;;;;;9.10;5.47;;;;;;;;;;5242725;27;20511;-72
2024/04/19 11:18:40;;;;;;;9.80;5.00;;;;;;;;;;5242364;27;21026;-72
2024/04/19 11:21:06;;;;;;;7.50;4.50;;;;;;;;;;5242521;27;20987;-70
2024/04/19 11:23:32;;;;;;;7.70;4.73;;;;;;;;;;5242219;27;20448;-73
2024/04/19 11:25:58;;;;;;;7.90;4.57;;;;;;;;;;5235899;27;20503;-70
2024/04/19 11:28:24;;;;;;;6.10;4.13;;;;;;;;;;5241809;27;20916;-73
2024/04/19 11:30:50;;;;;;;7.90;4.80;;;;;;;;;;5242103;27;20575;-72
2024/04/19 11:33:16;;;;;;;5.17;4.37;;;;;;;;;;5242314;27;20899;-71
2024/04/19 11:35:43;;;;;;;6.00;3.40;;;;;;;;;;5242282;27;20451;-71
2024/04/19 11:38:15;;;;;;;9.57;4.87;;;;;;;;;;5242078;27;20440;-71
2024/04/19 11:40:42;;;;;;;6.87;3.77;;;;;;;;;;5242023;27;20617;-71
2024/04/19 11:43:08;;;;;;;5.27;4.07;;;;;;;;;;5241956;27;20440;-71
2024/04/19 11:45:34;;;;;;;8.83;3.10;;;;;;;;;;5239306;27;21133;-71
2024/04/19 11:48:00;;;;;;;6.20;4.00;;;;;;;;;;5241643;27;20455;-71
2024/04/19 11:50:26;;;;;;;7.53;3.27;;;;;;;;;;5242248;27;20562;-70
2024/04/19 11:52:52;;;;;;;5.33;3.23;;;;;;;;;;5242305;27;20443;-71
2024/04/19 11:55:18;;;;;;;4.07;3.00;;;;;;;;;;5242336;27;20573;-70
2024/04/19 11:57:45;;;;;;;3.43;2.43;;;;;;;;;;5239949;27;20503;-70
2024/04/19 12:00:12;;;;;;;4.30;2.70;;;;;;;;;;5241237;27;20436;-71
2024/04/19 12:02:38;;;;;;;5.73;3.50;;;;;;;;;;5237585;27;20483;-71
2024/04/19 12:05:04;;;;;;;4.20;3.43;;;;;;;;;;5242295;27;20494;-71
2024/04/19 12:07:30;;;;;;;3.93;2.57;;;;;;;;;;5241558;27;20495;-71
2024/04/19 12:09:56;;;;;;;4.27;2.90;;;;;;;;;;5241582;27;20492;-71
2024/04/19 12:12:25;;;;;;;7.60;2.90;;;;;;;;;;5240486;27;20900;-71
2024/04/19 12:14:51;;;;;;;4.97;2.87;;;;;;;;;;5239010;27;20471;-71
2024/04/19 12:17:17;;;;;;;5.20;2.80;;;;;;;;;;5241405;27;20456;-70
2024/04/19 12:19:42;;;;;;;4.93;3.07;;;;;;;;;;5240110;27;20549;-70
2024/04/19 12:22:08;;;;;;;2.63;2.37;;;;;;;;;;5212873;27;20474;-71
2024/04/19 12:24:36;;;;;;;2.27;1.93;;;;;;;;;;5208314;27;20429;-71
2024/04/19 12:27:04;;;;;;;3.13;2.00;;;;;;;;;;5188228;27;20463;-71
2024/04/19 12:29:30;;;;;;;2.37;2.17;;;;;;;;;;5208507;27;20461;-72
2024/04/19 12:31:56;;;;;;;2.43;1.97;;;;;;;;;;5222861;27;20489;-71
2024/04/19 12:34:22;;;;;;;2.30;1.80;;;;;;;;;;5209098;27;20557;-71
2024/04/19 12:36:48;;;;;;;3.07;2.37;;;;;;;;;;5200109;27;20474;-72
2024/04/19 12:39:14;;;;;;;2.30;1.90;;;;;;;;;;5201568;27;20461;-72
2024/04/19 12:41:40;;;;;;;3.93;2.10;;;;;;;;;;5213161;27;20457;-72
2024/04/19 12:44:06;;;;;;;4.03;2.20;;;;;;;;;;5180602;27;20818;-72
2024/04/19 12:46:34;;;;;;;3.30;2.20;;;;;;;;;;5179905;27;20884;-72
2024/04/19 12:49:04;;;;;;;3.27;2.43;;;;;;;;;;5199905;27;20588;-72
2024/04/19 12:51:30;;;;;;;3.00;2.13;;;;;;;;;;5212574;27;20472;-72
2024/04/19 12:53:56;;;;;;;2.83;2.23;;;;;;;;;;5211763;27;20566;-72
2024/04/19 12:56:22;;;;;;;3.53;2.07;;;;;;;;;;5179241;27;20587;-71
2024/04/19 12:58:48;;;;;;;3.70;2.10;;;;;;;;;;5178442;27;20500;-72
2024/04/19 13:01:15;;;;;;;3.13;1.97;;;;;;;;;;5189709;27;20465;-71
2024/04/19 13:03:40;;;;;;;5.50;2.00;;;;;;;;;;5194706;27;20527;-71
2024/04/19 13:06:07;;;;;;;2.00;1.90;;;;;;;;;;5197779;27;20822;-71
2024/04/19 13:08:33;;;;;;;2.90;2.40;;;;;;;;;;5210345;27;20691;-71
2024/04/19 13:10:59;;;;;;;2.50;2.30;;;;;;;;;;5209243;27;20600;-71
2024/04/19 13:13:25;;;;;;;3.33;1.93;;;;;;;;;;5210973;27;20457;-71
2024/04/19 13:15:51;;;;;;;4.90;2.90;;;;;;;;;;5211232;27;20491;-71
2024/04/19 13:18:17;;;;;;;2.20;2.00;;;;;;;;;;5210880;27;20445;-71
2024/04/19 13:20:43;;;;;;;4.40;2.37;;;;;;;;;;5202964;27;20528;-71
2024/04/19 13:23:09;;;;;;;4.83;2.20;;;;;;;;;;5182273;27;20467;-72
2024/04/19 13:25:35;;;;;;;4.43;2.07;;;;;;;;;;5178395;27;20564;-72
2024/04/19 13:28:01;;;;;;;1.97;1.70;;;;;;;;;;5176355;27;20474;-71
2024/04/19 13:30:29;;;;;;;2.87;2.40;;;;;;;;;;5178914;27;20590;-71
2024/04/19 13:32:56;;;;;;;2.70;2.17;;;;;;;;;;5178195;27;20502;-71
2024/04/19 13:35:22;;;;;;;1.80;1.77;;;;;;;;;;5189206;27;21015;-70
2024/04/19 13:37:48;;;;;;;2.50;2.03;;;;;;;;;;5243426;27;20548;-71
2024/04/19 13:40:14;;;;;;;2.80;1.90;;;;;;;;;;5243760;27;20507;-71
2024/04/19 13:42:39;;;;;;;3.97;2.13;;;;;;;;;;5243985;27;20448;-72
2024/04/19 13:45:06;;;;;;;1.50;1.43;;;;;;;;;;5216821;27;21111;-72
2024/04/19 13:47:32;;;;;;;4.47;2.00;;;;;;;;;;5177035;27;20450;-70
2024/04/19 13:50:02;;;;;;;2.07;1.70;;;;;;;;;;5177292;27;20506;-70
2024/04/19 13:52:28;;;;;;;1.80;1.50;;;;;;;;;;5190695;27;20517;-71
2024/04/19 13:54:54;;;;;;;2.47;1.90;;;;;;;;;;5193278;27;21017;-71
2024/04/19 13:57:23;;;;;;;2.67;2.50;;;;;;;;;;5180937;27;20466;-69
2024/04/19 13:59:49;;;;;;;3.80;2.27;;;;;;;;;;5209160;27;20536;-68
2024/04/19 14:02:15;;;;;;;2.77;1.80;;;;;;;;;;5180952;27;20513;-70
2024/04/19 14:04:42;;;;;;;2.50;1.80;;;;;;;;;;5202785;27;20797;-69
2024/04/19 14:07:08;;;;;;;1.80;1.57;;;;;;;;;;5176869;27;20502;-69
2024/04/19 14:09:34;;;;;;;2.83;2.20;;;;;;;;;;5175668;27;20454;-69
2024/04/19 14:12:00;;;;;;;3.60;2.23;;;;;;;;;;5177553;27;20470;-69
2024/04/19 14:14:26;;;;;;;4.93;2.30;;;;;;;;;;5177592;27;20970;-69
2024/04/19 14:16:52;;;;;;;3.83;2.00;;;;;;;;;;5208822;27;20514;-70
2024/04/19 14:19:22;;;;;;;3.10;1.87;;;;;;;;;;5208669;27;20441;-69
2024/04/19 14:21:48;;;;;;;3.67;1.87;;;;;;;;;;5210040;27;20469;-69
2024/04/19 14:24:14;;;;;;;3.60;1.90;;;;;;;;;;5210051;27;20805;-70
2024/04/19 14:26:40;;;;;;;1.87;1.70;;;;;;;;;;5209187;27;20523;-70
2024/04/19 14:29:06;;;;;;;3.00;1.83;;;;;;;;;;5210084;27;20476;-71
2024/04/19 14:31:32;;;;;;;4.40;1.93;;;;;;;;;;5209929;27;20465;-72
2024/04/19 14:33:58;;;;;;;2.40;1.77;;;;;;;;;;5208837;27;20453;-70
2024/04/19 14:36:24;;;;;;;2.20;1.90;;;;;;;;;;5198581;27;20577;-70
2024/04/19 14:38:50;;;;;;;1.77;1.57;;;;;;;;;;5210240;27;20461;-70
2024/04/19 14:41:16;;;;;;;2.40;1.97;;;;;;;;;;5208313;27;20560;-71
2024/04/19 14:43:42;;;;;;;1.77;1.57;;;;;;;;;;5209929;27;20592;-71
2024/04/19 14:46:10;;;;;;;1.67;1.63;;;;;;;;;;5178662;27;20466;-70
2024/04/19 14:48:36;;;;;;;5.10;1.87;;;;;;;;;;5184718;27;20476;-72
2024/04/19 14:51:02;;;;;;;2.57;1.67;;;;;;;;;;5187152;27;20592;-70
2024/04/19 14:53:28;;;;;;;1.63;1.53;;;;;;;;;;5177033;27;20520;-70
2024/04/19 14:55:54;;;;;;;2.80;1.40;;;;;;;;;;5176876;27;20780;-70
2024/04/19 14:58:20;;;;;;;1.57;1.33;;;;;;;;;;5209300;27;20468;-70
2024/04/19 15:00:46;;;;;;;1.53;1.33;;;;;;;;;;5223836;27;21282;-72
2024/04/19 15:03:12;;;;;;;5.67;3.50;;;;;;;;;;5200707;27;20530;-72
2024/04/19 15:05:38;;;;;;;7.83;4.27;;;;;;;;;;5178088;27;20900;-72
2024/04/19 15:08:08;;;;;;;2.77;1.80;;;;;;;;;;5208369;27;20597;-69
2024/04/19 15:10:34;;;;;;;6.13;3.50;;;;;;;;;;5209436;27;20489;-69
2024/04/19 15:13:00;;;;;;;2.40;1.80;;;;;;;;;;5208264;27;20895;-69
2024/04/19 15:15:26;;;;;;;3.07;1.40;;;;;;;;;;5236519;27;20472;-70
2024/04/19 15:17:56;;;;;;;1.83;1.23;;;;;;;;;;5236057;27;20803;-70
2024/04/19 15:20:22;;;;;;;1.27;1.20;;;;;;;;;;5227940;27;20587;-69
2024/04/19 15:22:48;;;;;;;2.13;1.23;;;;;;;;;;5239471;27;20483;-69
2024/04/19 15:25:14;;;;;;;2.63;1.30;;;;;;;;;;5234460;27;21112;-70
2024/04/19 15:27:40;;;;;;;1.30;1.20;;;;;;;;;;5208595;27;20453;-70
2024/04/19 15:30:07;;;;;;;1.87;1.10;;;;;;;;;;5208751;27;20441;-70
2024/04/19 15:32:33;;;;;;;3.57;1.57;;;;;;;;;;5206722;27;20524;-71
2024/04/19 15:34:59;;;;;;;1.10;1.00;;;;;;;;;;5200966;27;20469;-70
2024/04/19 15:37:24;;;;;;;1.37;1.10;;;;;;;;;;5207814;27;20445;-69
2024/04/19 15:39:50;;;;;;;2.00;1.63;;;;;;;;;;5216447;27;20635;-69
2024/04/19 15:42:16;;;;;;;1.20;1.20;;;;;;;;;;5241504;27;20591;-69
2024/04/19 15:44:42;;;;;;;1.43;1.37;;;;;;;;;;5241646;27;20640;-69
2024/04/19 15:47:08;;;;;;;2.37;2.17;;;;;;;;;;5240632;27;20447;-68
2024/04/19 15:49:35;;;;;;;1.63;1.53;;;;;;;;;;5212195;27;20481;-69
2024/04/19 15:52:01;;;;;;;1.63;1.30;;;;;;;;;;5208199;27;20465;-68
2024/04/19 15:54:28;;;;;;;1.63;1.27;;;;;;;;;;5206794;27;20445;-68
2024/04/19 15:56:56;;;;;;;8.40;1.30;;;;;;;;;;5205865;27;20480;-69
2024/04/19 15:59:24;;;;;;;1.37;1.30;;;;;;;;;;5187602;27;20519;-69
2024/04/19 16:01:50;;;;;;;1.53;1.20;;;;;;;;;;5175406;27;21006;-68
2024/04/19 16:04:16;;;;;;;1.40;1.20;;;;;;;;;;5188627;27;20906;-68
2024/04/19 16:06:43;;;;;;;1.70;1.47;;;;;;;;;;5175254;27;20455;-69
2024/04/19 16:09:09;;;;;;;3.20;1.23;;;;;;;;;;5182855;27;20521;-68
2024/04/19 16:11:35;;;;;;;1.40;1.23;;;;;;;;;;5198794;27;20473;-69
2024/04/19 16:14:01;;;;;;;1.50;1.27;;;;;;;;;;5193254;27;20597;-69
2024/04/19 16:16:27;;;;;;;2.30;1.40;;;;;;;;;;5178023;27;20466;-69
2024/04/19 16:18:53;;;;;;;2.03;1.70;;;;;;;;;;5185291;27;20472;-69
2024/04/19 16:21:19;;;;;;;1.63;1.40;;;;;;;;;;5208058;27;20529;-70
2024/04/19 16:23:45;;;;;;;1.90;1.27;;;;;;;;;;5190355;27;20467;-70
2024/04/19 16:26:11;;;;;;;1.47;1.20;;;;;;;;;;5179695;27;20470;-70
2024/04/19 16:28:37;;;;;;;0.93;0.90;;;;;;;;;;5195307;27;21069;-69
2024/04/19 16:31:03;;;;;;;1.20;1.10;;;;;;;;;;5178507;27;20522;-69
2024/04/19 16:33:29;;;;;;;1.60;1.53;;;;;;;;;;5178471;27;20969;-70
2024/04/19 16:35:55;;;;;;;1.50;1.40;;;;;;;;;;5177974;27;20499;-70
2024/04/19 16:38:23;;;;;;;1.37;1.30;;;;;;;;;;5198990;27;20530;-69
2024/04/19 16:40:49;;;;;;;2.30;1.77;;;;;;;;;;5199073;27;20480;-69
2024/04/19 16:43:16;;;;;;;1.40;1.30;;;;;;;;;;5187985;27;20925;-70
2024/04/19 16:45:42;;;;;;;2.93;1.27;;;;;;;;;;5178285;27;21113;-69
2024/04/19 16:48:08;;;;;;;1.40;1.30;;;;;;;;;;5177985;27;20470;-69
2024/04/19 16:50:34;;;;;;;1.40;1.30;;;;;;;;;;5176727;27;20396;-69
2024/04/19 16:53:00;;;;;;;2.60;1.40;;;;;;;;;;5178398;27;20272;-69
2024/04/19 16:55:26;;;;;;;5.63;1.30;;;;;;;;;;5192420;27;20544;-71
2024/04/19 16:57:52;;;;;;;1.20;1.10;;;;;;;;;;5183385;27;20542;-67
2024/04/19 17:00:19;;;;;;;3.37;1.40;;;;;;;;;;5182769;27;20445;-68
2024/04/19 17:02:45;;;;;;;3.40;1.73;;;;;;;;;;5211283;27;20464;-69
2024/04/19 17:05:11;;;;;;;1.73;1.40;;;;;;;;;;5210571;27;20468;-70
2024/04/19 17:07:37;;;;;;;2.73;1.70;;;;;;;;;;5209722;27;20815;-69
2024/04/19 17:10:03;;;;;;;4.20;1.70;;;;;;;;;;5198962;27;20546;-70
2024/04/19 17:12:29;;;;;;;2.30;1.97;;;;;;;;;;5197355;27;20533;-70
2024/04/19 17:14:55;;;;;;;2.60;1.87;;;;;;;;;;5181712;27;20526;-70
2024/04/19 17:17:20;;;;;;;2.23;1.50;;;;;;;;;;5191271;27;20470;-71
2024/04/19 17:19:46;;;;;;;2.17;1.17;;;;;;;;;;5186018;27;20589;-67
2024/04/19 17:22:12;;;;;;;1.43;1.40;;;;;;;;;;5177569;27;20478;-67
2024/04/19 17:24:38;;;;;;;2.90;1.27;;;;;;;;;;5177384;27;20443;-67
2024/04/19 17:27:05;;;;;;;3.33;1.87;;;;;;;;;;5180860;27;20470;-66
2024/04/19 17:29:33;;;;;;;1.33;1.30;;;;;;;;;;5194153;27;20594;-67
2024/04/19 17:31:59;;;;;;;2.17;1.60;;;;;;;;;;5180040;27;20542;-66
2024/04/19 17:34:25;;;;;;;2.57;1.87;;;;;;;;;;5207048;27;21014;-68
2024/04/19 17:36:52;;;;;;;3.47;1.90;;;;;;;;;;5194203;27;20474;-66
2024/04/19 17:39:18;;;;;;;2.47;1.60;;;;;;;;;;5177359;27;20446;-66
2024/04/19 17:41:44;;;;;;;2.03;1.33;;;;;;;;;;5177232;27;20515;-67
2024/04/19 17:44:10;;;;;;;2.07;1.63;;;;;;;;;;5182837;27;20576;-68
2024/04/19 17:46:37;;;;;;;2.70;1.90;;;;;;;;;;5190146;27;20473;-66
2024/04/19 17:49:04;;;;;;;7.70;2.67;;;;;;;;;;5190343;27;20474;-65
2024/04/19 17:51:30;;;;;;;5.30;2.80;;;;;;;;;;5195873;27;20525;-66
2024/04/19 17:53:56;;;;;;;5.53;3.10;;;;;;;;;;5209543;27;20469;-65
2024/04/19 17:56:22;;;;;;;4.73;2.80;;;;;;;;;;5209492;27;20541;-65
2024/04/19 17:58:49;;;;;;;6.37;3.50;;;;;;;;;;5199935;27;20470;-66
2024/04/19 18:01:15;;;;;;;5.90;3.07;;;;;;;;;;5191088;27;20481;-66
2024/04/19 18:03:41;;;;;;;5.13;3.23;;;;;;;;;;5194995;27;20462;-67
2024/04/19 18:06:07;;;;;;;6.77;3.30;;;;;;;;;;5206864;27;20469;-67
2024/04/19 18:08:33;;;;;;;19.23;11.13;;;;;;;;;;5202472;27;20466;-69
2024/04/19 18:10:59;;;;;;;5.80;3.07;;;;;;;;;;5176626;27;20588;-69
2024/04/19 18:13:25;;;;;;;4.23;2.53;;;;;;;;;;5177037;27;20572;-67
2024/04/19 18:15:51;;;;;;;4.53;2.50;;;;;;;;;;5184324;27;20536;-67
2024/04/19 18:18:17;;;;;;;2.93;2.17;;;;;;;;;;5185948;27;21119;-67
2024/04/19 18:20:45;;;;;;;3.03;2.30;;;;;;;;;;5218148;27;20805;-69
2024/04/19 18:23:12;;;;;;;2.60;2.20;;;;;;;;;;5209679;27;20521;-67
2024/04/19 18:25:39;;;;;;;2.70;2.13;;;;;;;;;;5207211;27;20595;-65
2024/04/19 18:28:05;;;;;;;2.00;1.30;;;;;;;;;;5201257;27;20595;-65
2024/04/19 18:30:32;;;;;;;1.63;1.30;;;;;;;;;;5208445;27;20606;-68
2024/04/19 18:32:58;;;;;;;4.77;1.50;;;;;;;;;;5198409;27;20467;-66
2024/04/19 18:35:25;;;;;;;1.83;1.33;;;;;;;;;;5199883;27;20465;-66
2024/04/19 18:37:51;;;;;;;3.17;1.43;;;;;;;;;;5208794;27;20508;-69
2024/04/19 18:40:17;;;;;;;1.67;1.30;;;;;;;;;;5208121;27;20476;-65
2024/04/19 18:42:43;;;;;;;3.13;1.40;;;;;;;;;;5208643;27;20453;-66
2024/04/19 18:45:09;;;;;;;2.77;1.40;;;;;;;;;;5208217;27;20518;-66
2024/04/19 18:47:35;;;;;;;5.70;1.67;;;;;;;;;;5207689;27;20537;-67
2024/04/19 18:50:01;;;;;;;3.93;1.83;;;;;;;;;;5195672;27;20523;-66
2024/04/19 18:52:26;;;;;;;1.27;1.27;;;;;;;;;;5175373;27;20474;-67
2024/04/19 18:54:52;;;;;;;2.70;1.30;;;;;;;;;;5175801;27;20470;-67
2024/04/19 18:57:18;;;;;;;2.97;1.83;;;;;;;;;;5201810;27;20525;-66
2024/04/19 18:59:45;;;;;;;6.90;2.53;;;;;;;;;;5207674;27;20548;-66
2024/04/19 19:02:11;;;;;;;4.70;1.90;;;;;;;;;;5207417;27;20516;-67
2024/04/19 19:04:37;;;;;;;2.83;2.40;;;;;;;;;;5209427;27;20821;-67
2024/04/19 19:07:03;;;;;;;4.90;2.20;;;;;;;;;;5208488;27;20525;-71
2024/04/19 19:09:32;;;;;;;10.90;1.80;;;;;;;;;;5207755;27;20540;-70
2024/04/19 19:11:59;;;;;;;12.90;2.73;;;;;;;;;;5194571;27;20539;-71
2024/04/19 19:14:25;;;;;;;3.07;2.17;;;;;;;;;;5175285;27;20510;-70
2024/04/19 19:16:51;;;;;;;6.50;2.70;;;;;;;;;;5174833;27;20462;-70
2024/04/19 19:19:17;;;;;;;8.80;2.70;;;;;;;;;;5178660;27;22794;-69
2024/04/19 19:21:45;;;;;;;3.33;2.70;;;;;;;;;;5212679;27;20477;-70
2024/04/19 19:24:11;;;;;;;5.60;2.60;;;;;;;;;;5207844;27;20501;-71
2024/04/19 19:26:38;;;;;;;4.50;2.27;;;;;;;;;;5205498;27;20468;-70
2024/04/19 19:29:11;;;;;;;3.87;2.63;;;;;;;;;;5207654;27;21028;-70
2024/04/19 19:31:37;;;;;;;4.13;2.40;;;;;;;;;;5188449;27;20861;-70
2024/04/19 19:34:03;;;;;;;2.53;1.87;;;;;;;;;;5172381;27;20451;-71
2024/04/19 19:36:29;;;;;;;4.17;1.77;;;;;;;;;;5185683;27;20473;-70